Time;durP1;ratioP1;P1;durP2;ratioP2;P2;SDS_P1;SDS_P2;PMS_P1;PMS_P2;Temp;Humidity;BMP_temperature;BMP_pressure;BME280_temperature;BME280_humidity;BME280_pressure;Samples;Min_cycle;Max_cycle;Signal;HPM_P1;HPM_P2
2022/12/16 00:00:38;;;;;;;43.05;23.13;;;;;;;;;;5071817;28;20044;-65
2022/12/16 00:03:04;;;;;;;57.45;24.65;;;;;;;;;;5071441;28;20048;-65
2022/12/16 00:05:30;;;;;;;43.33;23.23;;;;;;;;;;5069956;28;21887;-64
2022/12/16 00:07:56;;;;;;;52.95;28.38;;;;;;;;;;5069444;28;20071;-65
2022/12/16 00:10:22;;;;;;;54.88;28.60;;;;;;;;;;5071542;28;20083;-64
2022/12/16 00:12:48;;;;;;;62.42;29.83;;;;;;;;;;5071401;28;20047;-64
2022/12/16 00:15:14;;;;;;;51.53;27.80;;;;;;;;;;5070025;28;20037;-64
2022/12/16 00:17:40;;;;;;;48.63;25.33;;;;;;;;;;5052675;28;20124;-65
2022/12/16 00:20:07;;;;;;;54.38;26.88;;;;;;;;;;5070763;28;20044;-65
2022/12/16 00:22:33;;;;;;;51.65;25.30;;;;;;;;;;5070911;28;20049;-64
2022/12/16 00:24:59;;;;;;;49.20;24.23;;;;;;;;;;5070806;28;20578;-65
2022/12/16 00:27:25;;;;;;;50.80;27.27;;;;;;;;;;5054121;28;20052;-64
2022/12/16 00:29:51;;;;;;;57.67;26.40;;;;;;;;;;5054544;28;20044;-64
2022/12/16 00:32:17;;;;;;;50.83;25.23;;;;;;;;;;5075264;28;20048;-64
2022/12/16 00:34:43;;;;;;;52.28;25.45;;;;;;;;;;5073779;28;20088;-65
2022/12/16 00:37:10;;;;;;;47.53;24.52;;;;;;;;;;5055607;28;20049;-65
2022/12/16 00:39:36;;;;;;;54.85;25.98;;;;;;;;;;5056985;28;20570;-65
2022/12/16 00:42:02;;;;;;;46.95;24.20;;;;;;;;;;5040441;28;20404;-65
2022/12/16 00:44:31;;;;;;;49.25;24.92;;;;;;;;;;5073655;28;20040;-65
2022/12/16 00:46:57;;;;;;;48.70;25.55;;;;;;;;;;5040954;28;20036;-65
2022/12/16 00:49:23;;;;;;;53.17;25.50;;;;;;;;;;5073703;28;20039;-65
2022/12/16 00:51:49;;;;;;;46.60;24.50;;;;;;;;;;5056733;28;20513;-65
2022/12/16 00:54:15;;;;;;;51.35;26.45;;;;;;;;;;5056184;28;20095;-65
2022/12/16 00:56:41;;;;;;;47.95;24.90;;;;;;;;;;5056880;28;20088;-65
2022/12/16 00:59:07;;;;;;;55.53;26.45;;;;;;;;;;5056206;28;20459;-65
2022/12/16 01:01:33;;;;;;;53.10;26.75;;;;;;;;;;5074336;28;20048;-65
2022/12/16 01:03:59;;;;;;;49.47;28.02;;;;;;;;;;5073927;28;20060;-65
2022/12/16 01:06:26;;;;;;;56.58;25.85;;;;;;;;;;5074826;28;20393;-65
2022/12/16 01:08:52;;;;;;;47.08;25.23;;;;;;;;;;5074266;28;20052;-65
2022/12/16 01:11:19;;;;;;;47.28;25.33;;;;;;;;;;5073616;28;20119;-65
2022/12/16 01:13:45;;;;;;;57.65;25.90;;;;;;;;;;5056846;28;20144;-65
2022/12/16 01:16:12;;;;;;;48.17;25.40;;;;;;;;;;5073709;28;20105;-64
2022/12/16 01:18:38;;;;;;;45.78;24.02;;;;;;;;;;5037970;28;20395;-65
2022/12/16 01:21:07;;;;;;;43.63;21.98;;;;;;;;;;5073570;28;20044;-65
2022/12/16 01:23:33;;;;;;;46.65;24.05;;;;;;;;;;5056477;28;20455;-65
2022/12/16 01:26:00;;;;;;;49.17;24.65;;;;;;;;;;5073288;28;20056;-65
2022/12/16 01:28:30;;;;;;;41.45;21.60;;;;;;;;;;5073444;28;20056;-65
2022/12/16 01:31:00;;;;;;;38.88;20.77;;;;;;;;;;5071569;28;20124;-65
2022/12/16 01:33:27;;;;;;;47.33;22.70;;;;;;;;;;5055378;28;20053;-65
2022/12/16 01:36:05;;;;;;;46.67;23.73;;;;;;;;;;5073009;28;20481;-65
2022/12/16 01:38:31;;;;;;;39.95;20.83;;;;;;;;;;5071344;28;20390;-65
2022/12/16 01:40:57;;;;;;;42.80;22.85;;;;;;;;;;5072680;28;20045;-65
2022/12/16 01:43:28;;;;;;;47.42;22.40;;;;;;;;;;5072652;28;20502;-65
2022/12/16 01:45:58;;;;;;;40.53;21.08;;;;;;;;;;5055835;28;20040;-65
2022/12/16 01:48:31;;;;;;;43.38;21.08;;;;;;;;;;5055107;28;20049;-66
2022/12/16 01:51:01;;;;;;;43.88;20.33;;;;;;;;;;5055522;28;20084;-65
2022/12/16 01:53:29;;;;;;;;;;;-0.60;99.90;;;;;;5074060;28;20488;-65
2022/12/16 01:55:55;;;;;;;42.00;19.73;;;;;;;;;;5073653;28;19943;-66
2022/12/16 01:58:24;;;;;;;39.88;20.08;;;;;;;;;;5073364;28;20481;-65
2022/12/16 02:00:50;;;;;;;34.53;18.05;;;;;;;;;;5097141;22;20052;-66
2022/12/16 02:03:16;;;;;;;36.25;16.60;;;;;;;;;;5070914;28;20072;-66
2022/12/16 02:05:42;;;;;;;35.92;16.33;;;;;;;;;;5054967;28;20048;-66
2022/12/16 02:08:08;;;;;;;33.10;16.73;;;;;;;;;;5053384;28;20128;-65
2022/12/16 02:10:44;;;;;;;38.72;17.98;;;;;;;;;;5055439;28;20133;-66
2022/12/16 02:13:25;;;;;;;35.78;17.33;;;;;;;;;;5051891;28;20114;-65
2022/12/16 02:15:57;;;;;;;39.70;17.38;;;;;;;;;;5049921;28;20091;-66
2022/12/16 02:18:32;;;;;;;36.58;17.02;;;;;;;;;;5053460;28;20106;-66
2022/12/16 02:21:01;;;;;;;31.42;15.52;;;;;;;;;;5054335;28;20079;-66
2022/12/16 02:23:34;;;;;;;32.13;16.30;;;;;;;;;;5073031;28;20080;-66
2022/12/16 02:26:09;;;;;;;31.52;16.15;;;;;;;;;;5070094;28;20098;-66
2022/12/16 02:29:09;;;;;;;35.13;15.50;;;-0.70;99.90;;;;;;5072496;28;20409;-66
2022/12/16 02:31:45;;;;;;;29.17;14.32;;;;;;;;;;5071852;28;20048;-66
2022/12/16 02:34:19;;;;;;;30.73;13.77;;;;;;;;;;5053948;28;20493;-66
2022/12/16 02:37:01;;;;;;;32.15;15.80;;;;;;;;;;5047722;28;20090;-66
2022/12/16 02:39:34;;;;;;;32.33;14.48;;;;;;;;;;5071883;28;20093;-66
2022/12/16 02:42:03;;;;;;;28.50;14.27;;;;;;;;;;5053987;28;20393;-66
2022/12/16 02:44:51;;;;;;;33.22;15.13;;;-0.70;99.90;;;;;;5055013;28;20048;-66
2022/12/16 02:47:17;;;;;;;28.73;14.60;;;;;;;;;;5041709;28;20493;-66
2022/12/16 02:49:45;;;;;;;31.35;13.95;;;;;;;;;;5072190;28;20048;-66
2022/12/16 02:52:12;;;;;;;31.98;13.80;;;;;;;;;;5054332;28;20051;-66
2022/12/16 02:54:38;;;;;;;28.08;14.27;;;;;;;;;;5068588;28;20044;-65
2022/12/16 02:57:20;;;;;;;27.95;14.38;;;;;;;;;;5058759;28;20182;-66
2022/12/16 02:59:49;;;;;;;24.10;12.77;;;;;;;;;;5053875;28;20079;-66
2022/12/16 03:02:21;;;;;;;30.80;14.13;;;;;;;;;;5072511;28;20060;-66
2022/12/16 03:05:00;;;;;;;31.42;14.20;;;;;;;;;;5070957;28;20092;-66
2022/12/16 03:07:27;;;;;;;23.85;12.60;;;;;;;;;;5072442;28;20044;-65
2022/12/16 03:09:54;;;;;;;23.92;12.50;;;;;;;;;;5052902;28;20409;-66
2022/12/16 03:12:21;;;;;;;24.00;12.60;;;;;;;;;;5054237;28;20477;-66
2022/12/16 03:14:50;;;;;;;29.35;12.38;;;;;;;;;;5051849;28;20105;-66
2022/12/16 03:17:18;;;;;;;23.95;12.00;;;;;;;;;;5071405;28;20409;-66
2022/12/16 03:19:46;;;;;;;21.25;11.93;;;;;;;;;;5071620;28;20052;-66
2022/12/16 03:22:15;;;;;;;27.92;12.75;;;;;;;;;;5070942;28;20118;-66
2022/12/16 03:24:42;;;;;;;24.33;11.55;;;;;;;;;;5051237;28;20520;-66
2022/12/16 03:27:12;;;;;;;23.98;11.27;;;;;;;;;;5070599;28;20489;-66
2022/12/16 03:29:44;;;;;;;21.13;11.13;;;;;;;;;;5053807;28;20397;-65
2022/12/16 03:32:34;;;;;;;22.17;10.90;;;;;;;;;;5053493;28;20455;-66
2022/12/16 03:35:15;;;;;;;25.33;11.63;;;;;;;;;;4953682;28;20066;-66
2022/12/16 03:37:41;;;;;;;;;;;-0.20;99.90;;;;;;4970136;28;20538;-66
2022/12/16 03:40:08;;;;;;;21.92;10.13;;;;;;;;;;4954168;28;20028;-65
2022/12/16 03:42:35;;;;;;;22.48;11.07;;;;;;;;;;4954640;28;20082;-65
2022/12/16 03:45:01;;;;;;;21.15;11.10;;;;;;;;;;4956366;28;20069;-65
2022/12/16 03:47:29;;;;;;;27.67;10.77;;;;;;;;;;4970213;28;20123;-65
2022/12/16 03:49:55;;;;;;;19.90;10.32;;;;;;;;;;4938243;28;20051;-65
2022/12/16 03:52:21;;;;;;;23.13;11.10;;;;;;;;;;4938221;28;20454;-65
2022/12/16 03:54:47;;;;;;;21.85;10.82;;;;;;;;;;4952856;28;20057;-66
2022/12/16 03:57:13;;;;;;;21.35;10.73;;;;;;;;;;4958789;28;20043;-66
2022/12/16 03:59:39;;;;;;;21.58;10.90;;;;;;;;;;4970615;28;20094;-66
2022/12/16 04:02:05;;;;;;;25.35;10.75;;;;;;;;;;4954359;28;20569;-66
2022/12/16 04:04:31;;;;;;;24.50;11.50;;;;;;;;;;4972197;28;20085;-66
2022/12/16 04:07:42;;;;;;;24.23;11.43;;;;;;;;;;4955857;28;20057;-66
2022/12/16 04:09:43;;;;;;;20.95;10.75;;;;;;;;;;4950978;28;20051;-67
2022/12/16 04:26:09;;;;;;;24.05;11.75;;;;;;;;;;5055647;28;20053;-66
2022/12/16 04:28:35;;;;;;;30.10;12.73;;;;;;;;;;5055453;28;20049;-66
2022/12/16 04:31:01;;;;;;;25.95;13.10;;;;;;;;;;5055030;28;20048;-66
